Time;durP1;ratioP1;P1;durP2;ratioP2;P2;SDS_P1;SDS_P2;PMS_P1;PMS_P2;Temp;Humidity;BMP_temperature;BMP_pressure;BME280_temperature;BME280_humidity;BME280_pressure;Samples;Min_cycle;Max_cycle;Signal;HPM_P1;HPM_P2
2021/11/02 00:10:06;;;;;;;27.43;14.67;;;;;;;10.19;91.40;100185.28;31260481;28;20060;-73
2021/11/02 00:25:12;;;;;;;23.43;12.33;;;;;;;10.21;91.57;100166.66;31241586;28;20069;-70
2021/11/02 00:40:15;;;;;;;25.10;13.63;;;;;;;10.27;92.06;100135.16;31246874;28;20462;-71
2021/11/02 00:55:26;;;;;;;25.50;13.00;;;;;;;10.32;91.85;100121.13;31253003;28;20058;-70
2021/11/02 01:10:46;;;;;;;21.17;11.87;;;;;;;10.29;92.47;100100.25;31256189;28;20063;-70
2021/11/02 01:25:49;;;;;;;24.93;11.77;;;;;;;10.25;92.15;100077.84;31254884;28;20089;-70
2021/11/02 01:40:55;;;;;;;25.53;12.00;;;;;;;10.23;93.26;100058.50;31224415;28;20477;-70
2021/11/02 01:56:02;;;;;;;22.73;12.47;;;;;;;10.20;93.23;100051.19;31243163;28;20049;-71
2021/11/02 02:11:54;;;;;;;22.47;11.70;;;;;;;10.19;93.98;100046.94;31244743;28;20053;-70
2021/11/02 02:27:21;;;;;;;29.67;14.67;;;;;;;10.16;94.15;100050.47;31227866;28;20046;-73
2021/11/02 02:42:31;;;;;;;34.70;18.20;;;;;;;10.22;93.52;100048.81;31237456;28;20057;-72
2021/11/02 02:57:47;;;;;;;28.13;16.13;;;;;;;10.33;92.97;100043.22;31236133;28;20052;-74
2021/11/02 03:12:55;;;;;;;25.23;12.73;;;;;;;10.41;93.20;100050.78;31238460;28;20056;-74
2021/11/02 06:32:16;;;;;;;31.53;15.27;;;;;;;9.77;100.00;99970.59;31229948;28;20398;-73
2021/11/02 07:18:26;;;;;;;36.77;16.93;;;;;;;9.79;100.00;99981.81;31235281;28;20045;-71
2021/11/02 08:50:43;;;;;;;23.57;12.67;;;;;;;10.09;100.00;99950.25;31217527;28;20054;-71
2021/11/02 09:05:53;;;;;;;20.30;10.57;;;;;;;10.16;100.00;99952.81;31229892;28;20053;-72
2021/11/02 09:21:06;;;;;;;16.73;9.90;;;;;;;10.21;100.00;99938.78;31233389;28;20076;-72
2021/11/02 09:36:25;;;;;;;29.37;11.50;;;;;;;10.21;100.00;99933.38;31238691;28;20052;-73
2021/11/02 09:51:36;;;;;;;28.57;11.97;;;;;;;10.19;100.00;99924.88;31241140;28;20061;-72
2021/11/02 10:06:58;;;;;;;29.03;13.20;;;;;;;10.18;100.00;99929.50;31244698;28;20054;-72
2021/11/02 10:22:26;;;;;;;35.13;12.80;;;;;;;10.27;100.00;99922.78;31231765;28;20060;-71
2021/11/02 10:37:40;;;;;;;46.03;15.40;;;;;;;10.37;100.00;99903.56;31245775;28;20045;-71
2021/11/02 10:52:47;;;;;;;46.83;15.97;;;;;;;10.53;100.00;99895.44;31242052;28;20045;-74
2021/11/02 11:07:58;;;;;;;53.93;14.93;;;;;;;10.71;100.00;99883.41;31220617;28;20055;-69
2021/11/02 11:23:10;;;;;;;41.70;15.50;;;;;;;10.78;100.00;99865.00;31218159;28;20110;-73
2021/11/02 11:38:15;;;;;;;20.70;11.00;;;;;;;10.88;100.00;99872.13;31204925;28;20060;-75
2021/11/02 11:53:21;;;;;;;20.77;10.80;;;;;;;11.02;100.00;99859.38;31242422;28;20061;-73
2021/11/02 12:08:46;;;;;;;33.60;12.77;;;;;;;11.08;100.00;99858.44;31225758;28;20419;-76
2021/11/02 12:23:58;;;;;;;41.50;15.80;;;;;;;11.20;100.00;99849.59;31249830;28;20050;-73
2021/11/02 12:39:25;;;;;;;71.50;18.87;;;;;;;11.31;100.00;99862.13;31244776;28;20057;-71
2021/11/02 12:54:27;;;;;;;;;;;;;;;11.50;100.00;99855.78;31257019;28;20049;-72
2021/11/02 13:09:36;;;;;;;51.37;19.40;;;;;;;11.65;100.00;99850.72;31236921;28;19925;-73
2021/11/02 13:25:09;;;;;;;45.00;16.97;;;;;;;11.79;100.00;99856.56;31221580;28;20123;-75
2021/11/02 13:40:22;;;;;;;47.40;19.97;;;;;;;11.88;100.00;99848.50;31239203;28;20498;-75
2021/11/02 13:55:26;;;;;;;45.80;19.87;;;;;;;11.92;100.00;99854.63;31211043;28;20068;-73
2021/11/02 14:10:34;;;;;;;50.70;18.53;;;;;;;11.98;100.00;99867.69;31228291;28;20141;-73
2021/11/02 14:25:40;;;;;;;43.40;16.33;;;;;;;12.02;100.00;99873.78;31233194;28;20048;-74
2021/11/02 14:40:54;;;;;;;51.83;25.97;;;;;;;11.99;100.00;99886.28;31234175;28;20053;-75
2021/11/02 14:56:07;;;;;;;30.63;11.70;;;;;;;11.78;100.00;99920.31;31235803;28;20050;-74
2021/11/02 15:11:14;;;;;;;33.93;13.13;;;;;;;11.39;100.00;99945.75;31245427;28;20074;-75
2021/11/02 15:26:19;;;;;;;37.80;14.73;;;;;;;11.15;100.00;99972.34;31235702;28;20084;-75
2021/11/02 15:41:28;;;;;;;33.90;14.83;;;;;;;10.90;100.00;99999.34;31227503;28;20054;-75
2021/11/02 15:56:35;;;;;;;35.03;14.87;;;;;;;10.68;100.00;100017.28;31210233;28;20078;-75
2021/11/02 16:11:50;;;;;;;41.07;16.97;;;;;;;10.53;100.00;100027.69;31235600;28;20471;-75
2021/11/02 16:26:56;;;;;;;37.87;16.10;;;;;;;10.47;100.00;100042.91;31235466;28;20050;-71
2021/11/02 16:42:08;;;;;;;39.73;15.03;;;;;;;10.42;100.00;100046.88;31236083;28;20088;-73
2021/11/02 16:57:23;;;;;;;33.47;16.60;;;;;;;10.37;100.00;100044.69;31238970;28;20045;-73
2021/11/02 17:12:30;;;;;;;36.43;15.40;;;;;;;10.41;100.00;100045.34;31179008;28;20108;-73
2021/11/02 17:27:33;;;;;;;40.87;17.23;;;;;;;10.31;100.00;100057.19;31239179;28;20495;-72
2021/11/02 17:42:40;;;;;;;42.50;16.23;;;;;;;10.22;100.00;100062.41;31221452;28;20471;-71
2021/11/02 17:57:53;;;;;;;51.53;18.57;;;;;;;10.12;100.00;100072.25;31236320;28;20052;-70
2021/11/02 18:12:57;;;;;;;48.63;18.33;;;;;;;10.12;100.00;100066.06;31222329;28;20060;-73
2021/11/02 18:28:02;;;;;;;88.80;27.47;;;;;;;10.07;100.00;100075.44;31238579;28;20053;-72
2021/11/02 18:43:07;;;;;;;72.97;25.23;;;;;;;9.93;100.00;100092.69;31229602;28;20434;-71
2021/11/02 18:58:09;;;;;;;74.20;26.67;;;;;;;10.00;100.00;100094.53;31237557;28;20061;-71
2021/11/02 19:13:12;;;;;;;62.70;23.87;;;;;;;10.14;100.00;100102.44;31224731;28;20049;-72
2021/11/02 19:28:13;;;;;;;70.60;24.70;;;;;;;10.22;100.00;100097.66;31207015;28;20088;-71
2021/11/02 19:43:17;;;;;;;75.50;24.40;;;;;;;10.17;100.00;100090.72;31203618;28;20084;-70
2021/11/02 19:58:21;;;;;;;66.00;24.07;;;;;;;10.22;100.00;100094.94;31229012;28;20749;-69
2021/11/02 20:13:26;;;;;;;61.50;23.53;;;;;;;10.17;100.00;100089.97;31226696;28;20077;-70
2021/11/02 20:28:28;;;;;;;79.13;29.10;;;;;;;10.20;100.00;100095.38;31232013;28;20053;-70
2021/11/02 20:43:35;;;;;;;77.50;30.67;;;;;;;10.18;100.00;100088.78;31197860;28;20443;-69
2021/11/02 20:58:40;;;;;;;32.50;16.40;;;;;;;10.06;100.00;100101.03;31247713;28;20056;-72
2021/11/02 21:13:53;;;;;;;25.40;13.20;;;;;;;9.94;100.00;100126.00;31247948;28;20055;-71
2021/11/02 21:28:55;;;;;;;29.23;14.63;;;;;;;9.95;100.00;100132.19;31241349;28;20287;-70
2021/11/02 22:04:17;;;;;;;25.23;12.40;;;;;;;10.22;100.00;100162.78;31815788;27;20444;-76
2021/11/02 22:19:22;;;;;;;27.87;13.00;;;;;;;10.11;100.00;100160.22;31681753;28;20485;-76
2021/11/02 22:34:27;;;;;;;38.33;17.73;;;;;;;10.09;100.00;100159.88;31688651;28;20044;-76
2021/11/02 22:49:31;;;;;;;29.50;14.57;;;;;;;10.22;100.00;100138.34;31684057;28;20060;-75
2021/11/02 23:04:33;;;;;;;29.97;15.33;;;;;;;10.27;100.00;100151.44;31593745;28;20505;-76
2021/11/02 23:19:46;;;;;;;24.60;11.67;;;;;;;10.19;100.00;100136.47;31599551;28;20044;-76
2021/11/02 23:34:50;;;;;;;26.03;12.40;;;;;;;9.95;100.00;100138.41;31581623;28;20048;-76
2021/11/02 23:49:52;;;;;;;22.50;11.47;;;;;;;9.84;100.00;100121.56;31595671;28;20113;-75
